createdAt,value
2023-05-21T00:01:07.891Z,11.50
2023-05-21T00:03:36.142Z,11.70
2023-05-21T00:06:03.933Z,12.00
2023-05-21T00:08:31.078Z,11.30
2023-05-21T00:10:57.945Z,12.30
2023-05-21T00:13:24.736Z,11.20
2023-05-21T00:15:51.631Z,11.50
2023-05-21T00:18:20.406Z,10.50
2023-05-21T00:20:47.659Z,10.30
2023-05-21T00:23:18.548Z,10.50
2023-05-21T00:25:46.730Z,10.80
2023-05-21T00:28:13.452Z,10.30
2023-05-21T00:30:40.266Z,10.40
2023-05-21T00:33:08.125Z,10.40
2023-05-21T00:35:35.119Z,11.30
2023-05-21T00:38:02.211Z,9.60
2023-05-21T00:40:28.860Z,10.50
2023-05-21T00:42:57.264Z,10.80
2023-05-21T00:45:25.695Z,10.90
2023-05-21T00:47:54.835Z,10.70
2023-05-21T00:50:23.595Z,10.70
2023-05-21T00:52:50.580Z,11.50
2023-05-21T00:55:17.337Z,9.60
2023-05-21T00:57:46.053Z,9.70
2023-05-21T01:00:14.779Z,10.80
2023-05-21T01:02:42.177Z,11.10
2023-05-21T01:05:10.142Z,10.00
2023-05-21T01:07:40.107Z,10.10
2023-05-21T01:10:09.006Z,10.10
2023-05-21T01:12:36.076Z,11.60
2023-05-21T01:15:04.146Z,10.40
2023-05-21T01:17:31.843Z,9.70
2023-05-21T01:19:59.782Z,10.70
2023-05-21T01:22:29.234Z,9.60
2023-05-21T01:24:55.970Z,10.00
2023-05-21T01:27:22.989Z,11.10
2023-05-21T01:29:50.361Z,10.40
2023-05-21T01:32:52.615Z,10.00
2023-05-21T01:35:29.731Z,9.40
2023-05-21T01:38:09.580Z,11.80
2023-05-21T01:40:46.809Z,10.30
2023-05-21T01:43:14.619Z,8.80
2023-05-21T01:45:43.781Z,10.80
2023-05-21T01:48:13.101Z,9.20
2023-05-21T01:50:41.444Z,9.90
2023-05-21T01:53:08.125Z,10.10
2023-05-21T01:55:35.963Z,10.80
2023-05-21T01:58:03.243Z,11.90
2023-05-21T02:00:32.677Z,10.70
2023-05-21T02:02:59.747Z,10.10
2023-05-21T02:05:26.802Z,9.60
2023-05-21T02:07:55.074Z,9.30
2023-05-21T02:10:22.291Z,9.40
2023-05-21T02:12:48.865Z,11.60
2023-05-21T02:15:18.026Z,9.70
2023-05-21T02:17:48.215Z,9.60
2023-05-21T02:20:15.619Z,11.60
2023-05-21T02:22:45.438Z,9.30
2023-05-21T02:25:15.851Z,10.70
2023-05-21T02:27:43.559Z,9.40
2023-05-21T02:30:13.220Z,9.20
2023-05-21T02:32:42.833Z,9.10
2023-05-21T02:35:12.962Z,9.40
2023-05-21T02:37:40.827Z,8.70
2023-05-21T02:40:10.252Z,10.20
2023-05-21T02:42:40.080Z,9.40
2023-05-21T02:45:12.314Z,9.00
2023-05-21T02:47:41.365Z,10.30
2023-05-21T02:50:09.549Z,10.30
2023-05-21T02:52:42.330Z,10.70
2023-05-21T02:55:09.772Z,10.30
2023-05-21T02:57:36.493Z,10.10
2023-05-21T03:00:06.208Z,10.90
2023-05-21T03:02:33.301Z,9.50
2023-05-21T03:05:00.765Z,10.00
2023-05-21T03:07:27.486Z,9.90
2023-05-21T03:09:54.186Z,8.80
2023-05-21T03:12:20.960Z,8.80
2023-05-21T03:14:51.277Z,10.80
2023-05-21T03:17:18.959Z,9.30
2023-05-21T03:19:45.664Z,9.80
2023-05-21T03:22:12.499Z,10.90
2023-05-21T03:24:40.066Z,8.90
2023-05-21T03:27:07.419Z,10.20
2023-05-21T03:29:34.662Z,9.60
2023-05-21T03:32:02.541Z,10.00
2023-05-21T03:34:30.316Z,9.70
2023-05-21T03:36:57.025Z,8.90
2023-05-21T03:39:24.023Z,10.30
2023-05-21T03:41:50.809Z,8.70
2023-05-21T03:44:26.003Z,10.20
2023-05-21T03:46:56.977Z,9.80
2023-05-21T03:49:29.681Z,11.30
2023-05-21T03:51:56.983Z,10.50
2023-05-21T03:54:23.879Z,9.30
2023-05-21T03:56:52.261Z,10.00
2023-05-21T03:59:19.117Z,10.00
2023-05-21T04:01:45.922Z,10.40
2023-05-21T04:04:14.398Z,10.80
2023-05-21T04:06:44.506Z,10.50
2023-05-21T04:09:11.843Z,10.70
2023-05-21T04:11:38.658Z,10.10
2023-05-21T04:14:05.349Z,8.90
2023-05-21T04:16:34.822Z,10.10
2023-05-21T04:19:01.804Z,10.50
2023-05-21T04:21:29.590Z,9.90
2023-05-21T04:23:57.602Z,9.90
2023-05-21T04:26:33.988Z,9.40
2023-05-21T04:29:03.729Z,9.10
2023-05-21T04:31:32.282Z,12.40
2023-05-21T04:34:00.368Z,10.60
2023-05-21T04:36:29.114Z,9.80
2023-05-21T04:38:56.174Z,10.90
2023-05-21T04:41:22.929Z,10.20
2023-05-21T04:43:55.013Z,10.90
2023-05-21T04:46:27.044Z,9.00
2023-05-21T04:48:58.142Z,9.60
2023-05-21T04:51:24.951Z,10.40
2023-05-21T04:53:52.007Z,10.90
2023-05-21T04:56:18.813Z,10.60
2023-05-21T04:58:48.085Z,11.00
2023-05-21T05:01:15.772Z,10.30
2023-05-21T05:03:42.499Z,11.40
2023-05-21T05:06:09.186Z,10.70
2023-05-21T05:08:36.248Z,9.50
2023-05-21T05:11:03.329Z,11.20
2023-05-21T05:13:30.068Z,11.90
2023-05-21T05:15:57.573Z,10.80
2023-05-21T05:18:24.295Z,10.40
2023-05-21T05:20:51.033Z,10.20
2023-05-21T05:23:17.719Z,9.20
2023-05-21T05:25:44.594Z,10.70
2023-05-21T05:28:11.349Z,9.20
2023-05-21T05:30:38.172Z,9.10
2023-05-21T05:33:21.368Z,10.70
2023-05-21T05:35:48.109Z,9.20
2023-05-21T05:38:15.148Z,10.10
2023-05-21T05:40:41.902Z,9.00
2023-05-21T05:43:08.826Z,9.10
2023-05-21T05:45:35.779Z,10.70
2023-05-21T05:48:05.172Z,9.30
2023-05-21T05:50:32.035Z,8.70
2023-05-21T05:52:58.742Z,9.10
2023-05-21T05:55:27.015Z,9.40
2023-05-21T05:57:53.892Z,11.20
2023-05-21T06:00:20.674Z,11.30
2023-05-21T06:02:48.555Z,9.60
2023-05-21T06:05:15.489Z,9.50
2023-05-21T06:07:42.603Z,10.60
2023-05-21T06:10:09.884Z,10.10
2023-05-21T06:12:36.773Z,10.10
2023-05-21T06:15:04.963Z,9.40
2023-05-21T06:17:31.910Z,9.50
2023-05-21T06:19:59.063Z,9.00
2023-05-21T06:22:25.904Z,10.50
2023-05-21T06:24:53.387Z,10.30
2023-05-21T06:27:20.639Z,10.60
2023-05-21T06:29:48.070Z,10.90
2023-05-21T06:32:14.797Z,9.80
2023-05-21T06:34:41.622Z,9.30
2023-05-21T06:37:08.267Z,8.20
2023-05-21T06:39:35.064Z,8.20
2023-05-21T06:42:01.916Z,8.30
2023-05-21T06:44:51.359Z,8.80
2023-05-21T06:47:28.167Z,8.90
2023-05-21T06:49:55.435Z,9.00
2023-05-21T06:52:22.082Z,8.70
2023-05-21T06:54:49.190Z,9.00
2023-05-21T06:57:16.248Z,9.10
2023-05-21T06:59:43.078Z,10.00
2023-05-21T07:02:10.017Z,7.90
2023-05-21T07:04:36.926Z,8.90
2023-05-21T07:07:06.414Z,9.10
2023-05-21T07:09:33.082Z,7.80
2023-05-21T07:11:59.717Z,7.80
2023-05-21T07:14:27.027Z,7.40
2023-05-21T07:16:53.761Z,8.60
2023-05-21T07:19:20.525Z,8.00
2023-05-21T07:21:49.822Z,8.70
2023-05-21T07:24:16.766Z,8.00
2023-05-21T07:26:43.372Z,8.60
2023-05-21T07:29:10.517Z,8.40
2023-05-21T07:31:37.815Z,7.70
2023-05-21T07:34:05.719Z,7.70
2023-05-21T07:36:33.708Z,7.80
2023-05-21T07:39:01.082Z,7.50
2023-05-21T07:41:28.159Z,9.60
2023-05-21T07:43:55.560Z,8.30
2023-05-21T07:46:22.647Z,10.80
2023-05-21T07:48:52.583Z,8.40
2023-05-21T07:51:19.252Z,8.80
2023-05-21T07:53:45.942Z,7.90
2023-05-21T07:56:13.562Z,8.60
2023-05-21T07:58:40.712Z,8.10
2023-05-21T08:01:07.883Z,8.10
2023-05-21T08:03:34.715Z,8.30
2023-05-21T08:06:02.147Z,8.20
2023-05-21T08:08:28.832Z,8.90
2023-05-21T08:10:57.115Z,8.30
2023-05-21T08:13:25.898Z,8.50
2023-05-21T08:15:53.739Z,9.50
2023-05-21T08:18:24.467Z,8.70
2023-05-21T08:20:53.451Z,7.80
2023-05-21T08:23:21.167Z,7.60
2023-05-21T08:25:50.952Z,9.30
2023-05-21T08:28:17.632Z,7.80
2023-05-21T08:30:44.326Z,8.50
2023-05-21T08:33:11.156Z,8.40
2023-05-21T08:35:38.799Z,9.70
2023-05-21T08:38:27.511Z,8.70
2023-05-21T08:41:19.374Z,9.00
2023-05-21T08:43:49.831Z,9.00
2023-05-21T08:46:22.262Z,9.10
2023-05-21T08:48:54.898Z,10.00
2023-05-21T08:51:22.278Z,9.90
2023-05-21T08:53:51.271Z,8.00
2023-05-21T08:56:18.469Z,8.50
2023-05-21T08:58:53.962Z,8.50
2023-05-21T09:01:24.757Z,9.10
2023-05-21T09:04:20.263Z,9.30
2023-05-21T09:06:49.949Z,9.40
2023-05-21T09:09:41.687Z,9.10
2023-05-21T09:12:08.792Z,10.40
2023-05-21T09:14:52.133Z,10.60
2023-05-21T09:17:22.230Z,8.60
2023-05-21T09:20:17.520Z,9.10
2023-05-21T09:22:51.516Z,8.30
2023-05-21T09:25:23.735Z,9.00
2023-05-21T09:27:51.200Z,9.50
2023-05-21T09:30:20.858Z,10.30
2023-05-21T09:32:57.856Z,9.10
2023-05-21T09:35:24.886Z,9.30
2023-05-21T09:37:53.413Z,9.00
2023-05-21T09:40:22.312Z,9.50
2023-05-21T09:42:53.507Z,9.60
2023-05-21T09:45:21.433Z,8.80
2023-05-21T09:47:50.278Z,7.60
2023-05-21T09:50:22.085Z,7.60
2023-05-21T09:52:52.926Z,8.10
2023-05-21T09:55:23.483Z,9.60
2023-05-21T09:57:52.573Z,9.30
2023-05-21T10:00:22.305Z,10.10
2023-05-21T10:02:54.185Z,7.70
2023-05-21T10:05:26.097Z,11.00
2023-05-21T10:07:56.457Z,9.00
2023-05-21T10:10:23.891Z,8.70
2023-05-21T10:13:04.545Z,8.80
2023-05-21T10:15:38.733Z,8.00
2023-05-21T10:18:07.136Z,7.80
2023-05-21T10:20:36.793Z,8.40
2023-05-21T10:23:04.076Z,8.00
2023-05-21T10:25:32.447Z,8.50
2023-05-21T10:27:59.199Z,7.90
2023-05-21T10:30:25.828Z,8.60
2023-05-21T10:32:55.996Z,8.20
2023-05-21T10:35:23.440Z,8.90
2023-05-21T10:37:52.696Z,8.60
2023-05-21T10:40:19.891Z,8.10
2023-05-21T10:43:13.245Z,8.90
2023-05-21T10:46:14.445Z,7.90
2023-05-21T10:49:37.721Z,7.70
2023-05-21T10:52:45.116Z,7.60
2023-05-21T10:55:51.207Z,7.60
2023-05-21T10:58:32.748Z,7.80
2023-05-21T11:01:01.629Z,9.30
2023-05-21T11:03:29.814Z,8.20
2023-05-21T11:05:58.059Z,8.00
2023-05-21T11:08:31.886Z,7.80
2023-05-21T11:10:59.110Z,8.30
2023-05-21T11:13:27.507Z,8.20
2023-05-21T11:16:05.269Z,7.90
2023-05-21T11:18:38.480Z,8.60
2023-05-21T11:21:13.823Z,8.00
2023-05-21T11:24:01.784Z,7.80
2023-05-21T11:26:50.426Z,8.00
2023-05-21T11:29:17.358Z,9.90
2023-05-21T11:31:49.158Z,7.70
2023-05-21T11:34:32.268Z,7.40
2023-05-21T11:37:27.945Z,7.80
2023-05-21T11:39:55.867Z,7.90
2023-05-21T11:42:39.144Z,9.00
2023-05-21T11:45:06.631Z,10.30
2023-05-21T11:47:33.491Z,9.00
2023-05-21T11:50:03.251Z,7.40
2023-05-21T11:52:31.810Z,8.50
2023-05-21T11:54:59.796Z,8.40
2023-05-21T11:57:31.239Z,8.20
2023-05-21T12:00:01.192Z,7.80
2023-05-21T12:02:32.136Z,8.40
2023-05-21T12:05:00.598Z,9.30
2023-05-21T12:07:32.237Z,6.80
2023-05-21T12:10:00.412Z,8.90
2023-05-21T12:12:33.075Z,8.50
2023-05-21T12:15:10.380Z,9.10
2023-05-21T12:17:37.043Z,7.60
2023-05-21T12:20:07.475Z,8.00
2023-05-21T12:22:34.223Z,10.00
2023-05-21T12:25:01.299Z,10.00
2023-05-21T12:27:31.226Z,7.20
2023-05-21T12:29:58.871Z,7.70
2023-05-21T12:32:28.876Z,9.10
2023-05-21T12:34:56.389Z,8.40
2023-05-21T12:37:32.362Z,8.20
2023-05-21T12:40:01.886Z,8.70
2023-05-21T12:42:34.618Z,9.10
2023-05-21T12:45:06.942Z,8.90
2023-05-21T12:47:33.836Z,9.60
2023-05-21T12:50:02.167Z,8.10
2023-05-21T12:52:30.941Z,8.60
2023-05-21T12:54:58.543Z,8.40
2023-05-21T12:57:38.655Z,7.90
2023-05-21T13:00:07.393Z,9.20
2023-05-21T13:02:38.830Z,8.90
2023-05-21T13:05:11.280Z,7.80
2023-05-21T13:07:39.832Z,8.30
2023-05-21T13:10:07.705Z,8.80
2023-05-21T13:12:35.071Z,8.40
2023-05-21T13:15:04.335Z,8.20
2023-05-21T13:17:31.021Z,8.30
2023-05-21T13:20:09.638Z,9.40
2023-05-21T13:22:47.846Z,7.60
2023-05-21T13:25:21.171Z,8.30
2023-05-21T13:27:50.913Z,7.90
2023-05-21T13:30:18.935Z,8.20
2023-05-21T13:32:46.545Z,11.30
2023-05-21T13:35:16.613Z,8.20
2023-05-21T13:37:43.627Z,9.80
2023-05-21T13:40:12.239Z,7.90
2023-05-21T13:42:39.202Z,8.10
2023-05-21T13:45:11.559Z,8.40
2023-05-21T13:47:40.440Z,9.00
2023-05-21T13:50:09.721Z,9.00
2023-05-21T13:52:38.084Z,7.90
2023-05-21T13:55:05.483Z,8.40
2023-05-21T13:57:32.286Z,8.30
2023-05-21T13:59:59.614Z,8.40
2023-05-21T14:02:26.581Z,9.30
2023-05-21T14:04:53.862Z,7.50
2023-05-21T14:07:21.474Z,7.80
2023-05-21T14:09:48.251Z,7.90
2023-05-21T14:12:14.924Z,7.60
2023-05-21T14:14:42.055Z,7.50
2023-05-21T14:17:08.948Z,7.90
2023-05-21T14:19:35.801Z,8.30
2023-05-21T14:22:02.501Z,7.80
2023-05-21T14:24:29.173Z,11.60
2023-05-21T14:26:55.848Z,8.70
2023-05-21T14:29:22.914Z,9.30
2023-05-21T14:31:49.580Z,8.40
2023-05-21T14:34:16.186Z,9.60
2023-05-21T14:36:43.022Z,8.10
2023-05-21T14:39:09.631Z,8.80
2023-05-21T14:41:39.733Z,8.40
2023-05-21T14:44:06.549Z,7.60
2023-05-21T14:46:33.279Z,8.90
2023-05-21T14:49:00.723Z,7.90
2023-05-21T14:51:27.544Z,8.80
2023-05-21T14:53:54.351Z,8.50
2023-05-21T14:56:22.175Z,8.90
2023-05-21T14:58:49.352Z,9.50
2023-05-21T15:01:16.241Z,9.20
2023-05-21T15:03:42.967Z,8.40
2023-05-21T15:06:09.753Z,7.60
2023-05-21T15:08:36.421Z,10.10
2023-05-21T15:11:03.088Z,10.10
2023-05-21T15:13:29.658Z,7.30
2023-05-21T15:15:56.536Z,8.80
2023-05-21T15:18:24.716Z,8.80
2023-05-21T15:20:51.573Z,6.80
2023-05-21T15:23:18.482Z,8.60
2023-05-21T15:25:46.079Z,9.00
2023-05-21T15:28:13.079Z,10.20
2023-05-21T15:30:40.434Z,9.10
2023-05-21T15:33:07.109Z,8.80
2023-05-21T15:35:35.813Z,9.90
2023-05-21T15:38:02.978Z,9.00
2023-05-21T15:40:29.695Z,7.90
2023-05-21T15:42:56.410Z,10.10
2023-05-21T15:45:24.071Z,9.20
2023-05-21T15:47:50.995Z,10.40
2023-05-21T15:50:17.750Z,7.80
2023-05-21T15:52:44.392Z,9.20
2023-05-21T15:55:11.075Z,8.50
2023-05-21T15:57:37.832Z,8.50
2023-05-21T16:00:05.159Z,7.80
2023-05-21T16:02:35.611Z,9.10
2023-05-21T16:05:02.640Z,8.50
2023-05-21T16:07:29.443Z,8.90
2023-05-21T16:09:56.039Z,8.50
2023-05-21T16:12:22.815Z,8.30
2023-05-21T16:14:52.306Z,8.60
2023-05-21T16:17:22.185Z,9.00
2023-05-21T16:19:48.815Z,7.30
2023-05-21T16:22:15.602Z,8.10
2023-05-21T16:24:42.258Z,8.50
2023-05-21T16:27:08.957Z,8.10
2023-05-21T16:29:35.733Z,8.30
2023-05-21T16:32:02.949Z,9.20
2023-05-21T16:34:29.775Z,8.50
2023-05-21T16:36:56.673Z,8.70
2023-05-21T16:39:23.343Z,8.30
2023-05-21T16:41:50.055Z,7.60
2023-05-21T16:44:16.796Z,8.20
2023-05-21T16:46:43.421Z,9.20
2023-05-21T16:49:10.121Z,9.20
2023-05-21T16:51:36.817Z,8.60
2023-05-21T16:54:04.840Z,7.90
2023-05-21T16:56:31.660Z,8.00
2023-05-21T16:58:58.454Z,8.70
2023-05-21T17:01:25.483Z,7.40
2023-05-21T17:03:53.135Z,8.40
2023-05-21T17:06:20.021Z,8.60
2023-05-21T17:08:47.267Z,8.10
2023-05-21T17:11:14.092Z,8.00
2023-05-21T17:13:41.124Z,9.20
2023-05-21T17:16:07.844Z,7.40
2023-05-21T17:18:34.547Z,7.50
2023-05-21T17:21:01.124Z,8.60
2023-05-21T17:23:27.743Z,9.10
2023-05-21T17:25:54.342Z,9.50
2023-05-21T17:28:21.001Z,7.80
2023-05-21T17:30:49.684Z,7.40
2023-05-21T17:33:16.954Z,8.40
2023-05-21T17:35:43.942Z,7.90
2023-05-21T17:38:10.696Z,7.80
2023-05-21T17:40:37.484Z,7.30
2023-05-21T17:43:05.035Z,8.60
2023-05-21T17:45:32.250Z,9.70
2023-05-21T17:48:00.342Z,8.80
2023-05-21T17:50:28.149Z,8.10
2023-05-21T17:52:54.953Z,9.40
2023-05-21T17:55:21.632Z,9.00
2023-05-21T17:57:48.321Z,10.90
2023-05-21T18:00:15.201Z,9.80
2023-05-21T18:02:41.830Z,12.20
2023-05-21T18:05:08.601Z,9.20
2023-05-21T18:07:35.816Z,9.00
2023-05-21T18:10:02.409Z,11.90
2023-05-21T18:12:29.055Z,9.20
2023-05-21T18:14:55.733Z,9.50
2023-05-21T18:17:22.442Z,10.00
2023-05-21T18:19:50.909Z,10.70
2023-05-21T18:22:17.658Z,10.60
2023-05-21T18:24:44.393Z,10.00
2023-05-21T18:27:12.379Z,9.70
2023-05-21T18:29:39.092Z,10.70
2023-05-21T18:32:06.369Z,9.80
2023-05-21T18:34:33.184Z,9.80
2023-05-21T18:37:00.463Z,9.10
2023-05-21T18:39:28.063Z,10.20
2023-05-21T18:42:08.871Z,10.80
2023-05-21T18:44:39.940Z,11.20
2023-05-21T18:47:08.023Z,9.80
2023-05-21T18:49:36.127Z,10.90
2023-05-21T18:52:07.757Z,11.60
2023-05-21T18:54:34.426Z,11.10
2023-05-21T18:57:01.117Z,10.70
2023-05-21T18:59:28.795Z,11.30
2023-05-21T19:01:55.689Z,11.90
2023-05-21T19:04:22.676Z,11.80
2023-05-21T19:06:49.408Z,9.60
2023-05-21T19:09:16.859Z,11.10
2023-05-21T19:11:43.551Z,11.20
2023-05-21T19:14:10.237Z,12.60
2023-05-21T19:16:37.040Z,12.50
2023-05-21T19:19:04.457Z,13.20
2023-05-21T19:21:31.533Z,9.60
2023-05-21T19:23:58.920Z,11.70
2023-05-21T19:26:25.627Z,10.70
2023-05-21T19:28:55.493Z,11.10
2023-05-21T19:31:23.230Z,11.40
2023-05-21T19:33:50.647Z,11.70
2023-05-21T19:36:18.494Z,10.80
2023-05-21T19:38:49.546Z,12.30
2023-05-21T19:41:17.616Z,10.70
2023-05-21T19:43:45.458Z,11.30
2023-05-21T19:46:12.216Z,11.40
2023-05-21T19:48:38.903Z,10.30
2023-05-21T19:51:05.720Z,11.20
2023-05-21T19:53:32.282Z,11.10
2023-05-21T19:55:59.035Z,10.70
2023-05-21T19:58:29.430Z,11.50
2023-05-21T20:00:59.336Z,11.80
2023-05-21T20:03:26.725Z,14.10
2023-05-21T20:05:54.595Z,10.80
2023-05-21T20:08:21.749Z,13.00
2023-05-21T20:10:51.452Z,11.10
2023-05-21T20:13:19.667Z,10.60
2023-05-21T20:15:48.092Z,14.10
2023-05-21T20:18:15.500Z,12.30
2023-05-21T20:20:43.149Z,13.10
2023-05-21T20:23:10.033Z,12.50
2023-05-21T20:25:36.773Z,11.10
2023-05-21T20:28:05.108Z,12.40
2023-05-21T20:30:52.423Z,12.40
2023-05-21T20:33:20.352Z,12.70
2023-05-21T20:35:47.103Z,13.40
2023-05-21T20:38:16.063Z,11.00
2023-05-21T20:40:44.188Z,13.10
2023-05-21T20:43:12.128Z,12.90
2023-05-21T20:45:42.019Z,11.90
2023-05-21T20:48:09.947Z,12.10
2023-05-21T20:50:37.272Z,13.60
2023-05-21T20:53:04.377Z,12.40
2023-05-21T20:55:35.010Z,10.60
2023-05-21T20:58:03.680Z,11.80
2023-05-21T21:00:31.839Z,11.80
2023-05-21T21:03:01.300Z,13.90
2023-05-21T21:05:28.371Z,11.50
2023-05-21T21:07:55.933Z,11.40
2023-05-21T21:10:22.875Z,11.80
2023-05-21T21:12:49.640Z,12.90
2023-05-21T21:15:16.554Z,11.60
2023-05-21T21:17:43.257Z,11.00
2023-05-21T21:20:11.591Z,12.40
2023-05-21T21:22:38.411Z,10.40
2023-05-21T21:25:05.852Z,11.70
2023-05-21T21:27:32.529Z,11.70
2023-05-21T21:29:59.128Z,11.50
2023-05-21T21:32:26.385Z,12.40
2023-05-21T21:34:53.036Z,11.80
2023-05-21T21:37:19.683Z,11.30
2023-05-21T21:39:46.323Z,10.60
2023-05-21T21:42:13.072Z,11.40
2023-05-21T21:44:39.759Z,11.70
2023-05-21T21:47:06.594Z,11.40
2023-05-21T21:49:33.215Z,10.90
2023-05-21T21:51:59.863Z,12.50
2023-05-21T21:54:27.766Z,15.50
2023-05-21T21:56:54.550Z,10.60
2023-05-21T21:59:22.307Z,12.60
2023-05-21T22:01:49.353Z,12.20
2023-05-21T22:04:16.077Z,13.60
2023-05-21T22:06:45.405Z,12.20
2023-05-21T22:09:13.614Z,12.70
2023-05-21T22:11:40.430Z,13.30
2023-05-21T22:14:07.822Z,11.70
2023-05-21T22:16:34.516Z,12.40
2023-05-21T22:19:01.429Z,12.30
2023-05-21T22:21:29.224Z,13.40
2023-05-21T22:23:56.212Z,13.90
2023-05-21T22:26:23.301Z,11.40
2023-05-21T22:28:51.437Z,12.30
2023-05-21T22:31:18.076Z,12.10
2023-05-21T22:33:44.769Z,12.60
2023-05-21T22:36:11.609Z,15.30
2023-05-21T22:38:38.416Z,13.40
2023-05-21T22:41:05.184Z,13.60
2023-05-21T22:43:34.800Z,14.20
2023-05-21T22:46:01.928Z,14.40
2023-05-21T22:48:31.686Z,13.60
2023-05-21T22:50:58.449Z,12.90
2023-05-21T22:53:25.792Z,13.90
2023-05-21T22:55:52.621Z,12.80
2023-05-21T22:58:19.368Z,13.90
2023-05-21T23:00:48.064Z,11.80
2023-05-21T23:03:14.951Z,12.70
2023-05-21T23:05:41.813Z,13.00
2023-05-21T23:08:08.464Z,13.20
2023-05-21T23:10:35.810Z,13.50
2023-05-21T23:13:02.564Z,13.30
2023-05-21T23:15:32.387Z,16.30
2023-05-21T23:18:00.432Z,11.60
2023-05-21T23:20:27.861Z,12.50
2023-05-21T23:22:54.529Z,11.70
2023-05-21T23:25:21.159Z,11.40
2023-05-21T23:27:47.813Z,11.70
2023-05-21T23:30:14.684Z,13.00
2023-05-21T23:32:41.405Z,13.00
2023-05-21T23:35:09.841Z,13.00
2023-05-21T23:37:36.474Z,12.80
2023-05-21T23:40:03.877Z,13.80
2023-05-21T23:42:30.549Z,12.70
2023-05-21T23:44:57.173Z,13.50
2023-05-21T23:47:23.827Z,12.30
2023-05-21T23:49:50.448Z,13.00
2023-05-21T23:52:18.232Z,14.40
2023-05-21T23:54:44.908Z,11.80
2023-05-21T23:57:13.290Z,11.90
2023-05-21T23:59:40.099Z,14.10
